Kansas City, Missouri
Traffic Map
Current Weather Conditions
Kansas City, Missouri
Clear
Clear
77°
Feels Like: 79°
Wind Chill: 77° Ceiling: Unl
Heat Index: 79° Visibility: 10mi
Dew Point: 65° Wind: 12mph
Humidity: 66% Direction: 200° (SSW)
Pressure: 29.97in Gusts: 0mph
Raw Report DataKMKC 020754Z 20010KT 10SM CLR 25/18 A2997 RMK AO2 SLP139 T02500183
Traffic Incident Summary
Active as of:
Severity:
Category:
InformationThere was an issue retrieving the traffic information for this location. Please try a different location or try again shortly.
Advertisements
Track Severe Weather on mobile